createdAt,value
2023-06-02T00:00:40.907Z,94436.19
2023-06-02T00:03:09.970Z,94432.38
2023-06-02T00:05:39.478Z,94433.78
2023-06-02T00:08:07.863Z,94426.13
2023-06-02T00:10:35.983Z,94439.84
2023-06-02T00:13:05.387Z,94425.34
2023-06-02T00:15:34.489Z,94426.97
2023-06-02T00:18:02.697Z,94418.91
2023-06-02T00:20:33.019Z,94421.75
2023-06-02T00:23:01.697Z,94414.09
2023-06-02T00:25:29.810Z,94411.06
2023-06-02T00:27:57.858Z,94420.72
2023-06-02T00:30:28.216Z,94422.94
2023-06-02T00:32:56.301Z,94427.00
2023-06-02T00:35:24.468Z,94425.59
2023-06-02T00:37:52.607Z,94424.78
2023-06-02T00:40:20.772Z,94420.34
2023-06-02T00:42:48.790Z,94425.78
2023-06-02T00:45:17.780Z,94420.13
2023-06-02T00:47:47.170Z,94415.66
2023-06-02T00:50:15.137Z,94414.06
2023-06-02T00:52:43.879Z,94412.41
2023-06-02T00:55:12.208Z,94417.47
2023-06-02T00:57:41.606Z,94418.25
2023-06-02T01:00:11.505Z,94412.44
2023-06-02T01:02:39.545Z,94413.06
2023-06-02T01:05:12.057Z,94402.41
2023-06-02T01:07:46.418Z,94407.47
2023-06-02T01:10:17.156Z,94406.47
2023-06-02T01:12:46.130Z,94399.22
2023-06-02T01:15:14.630Z,94402.44
2023-06-02T01:17:47.381Z,94409.09
2023-06-02T01:20:22.378Z,94392.63
2023-06-02T01:25:33.706Z,94394.63
2023-06-02T01:28:03.995Z,94395.25
2023-06-02T01:30:32.833Z,94392.84
2023-06-02T01:33:09.681Z,94390.03
2023-06-02T01:35:44.011Z,94394.03
2023-06-02T01:38:12.710Z,94395.84
2023-06-02T01:40:42.820Z,94390.59
2023-06-02T01:43:12.224Z,94389.19
2023-06-02T01:45:41.399Z,94375.13
2023-06-02T01:48:10.004Z,94380.97
2023-06-02T01:50:39.511Z,94390.22
2023-06-02T01:53:07.957Z,94376.53
2023-06-02T01:55:36.247Z,94380.56
2023-06-02T01:58:05.600Z,94382.78
2023-06-02T02:00:33.569Z,94382.56
2023-06-02T02:03:01.597Z,94381.56
2023-06-02T02:05:29.583Z,94384.97
2023-06-02T02:07:58.562Z,94380.13
2023-06-02T02:10:26.808Z,94386.34
2023-06-02T02:12:54.816Z,94380.72
2023-06-02T02:15:24.400Z,94380.69
2023-06-02T02:17:52.542Z,94385.31
2023-06-02T02:20:21.219Z,94379.06
2023-06-02T02:22:49.427Z,94391.94
2023-06-02T02:25:17.459Z,94378.06
2023-06-02T02:27:45.512Z,94385.72
2023-06-02T02:30:13.760Z,94378.88
2023-06-02T02:32:45.737Z,94385.13
2023-06-02T02:35:14.141Z,94378.31
2023-06-02T02:37:47.314Z,94373.50
2023-06-02T02:40:17.351Z,94378.72
2023-06-02T02:42:45.656Z,94371.28
2023-06-02T02:45:13.630Z,94371.88
2023-06-02T02:47:42.951Z,94380.13
2023-06-02T02:50:11.937Z,94378.31
2023-06-02T02:52:39.871Z,94378.50
2023-06-02T02:55:08.814Z,94376.72
2023-06-02T02:57:37.802Z,94362.63
2023-06-02T03:00:08.807Z,94374.88
2023-06-02T03:02:36.814Z,94376.91
2023-06-02T03:05:07.992Z,94372.88
2023-06-02T03:07:36.637Z,94371.69
2023-06-02T03:10:04.848Z,94367.63
2023-06-02T03:12:32.820Z,94374.53
2023-06-02T03:15:02.765Z,94383.00
2023-06-02T03:17:31.178Z,94381.16
2023-06-02T03:19:59.321Z,94381.34
2023-06-02T03:22:30.155Z,94380.13
2023-06-02T03:24:58.184Z,94375.53
2023-06-02T03:27:26.353Z,94381.16
2023-06-02T03:29:54.362Z,94381.97
2023-06-02T03:32:22.323Z,94383.38
2023-06-02T03:34:50.498Z,94377.53
2023-06-02T03:37:18.508Z,94383.59
2023-06-02T03:39:47.764Z,94385.63
2023-06-02T03:42:15.972Z,94377.34
2023-06-02T03:44:44.027Z,94380.78
2023-06-02T03:47:11.934Z,94377.53
2023-06-02T03:49:40.148Z,94379.94
2023-06-02T03:52:08.362Z,94376.06
2023-06-02T03:54:36.278Z,94368.44
2023-06-02T03:57:06.102Z,94374.25
2023-06-02T03:59:34.645Z,94361.78
2023-06-02T04:02:02.606Z,94367.59
2023-06-02T04:04:30.750Z,94359.38
2023-06-02T04:06:58.852Z,94354.09
2023-06-02T04:09:26.871Z,94364.16
2023-06-02T04:11:54.906Z,94363.19
2023-06-02T04:14:24.224Z,94366.75
2023-06-02T04:16:52.244Z,94363.34
2023-06-02T04:19:20.288Z,94375.38
2023-06-02T04:21:48.446Z,94370.94
2023-06-02T04:24:16.350Z,94365.66
2023-06-02T04:26:44.286Z,94369.06
2023-06-02T04:29:12.330Z,94364.19
2023-06-02T04:31:43.514Z,94357.94
2023-06-02T04:34:12.385Z,94362.13
2023-06-02T04:36:40.512Z,94361.28
2023-06-02T04:39:09.072Z,94355.84
2023-06-02T04:41:37.534Z,94357.44
2023-06-02T04:44:07.376Z,94339.50
2023-06-02T04:46:36.579Z,94360.41
2023-06-02T04:49:10.669Z,94371.44
2023-06-02T04:51:39.292Z,94373.81
2023-06-02T04:54:07.526Z,94375.38
2023-06-02T04:56:36.876Z,94373.59
2023-06-02T04:59:05.153Z,94371.41
2023-06-02T05:01:34.224Z,94379.22
2023-06-02T05:04:02.293Z,94375.31
2023-06-02T05:06:31.837Z,94354.22
2023-06-02T05:08:59.793Z,94384.50
2023-06-02T05:11:27.759Z,94385.06
2023-06-02T05:13:56.617Z,94397.22
2023-06-02T05:16:25.819Z,94382.88
2023-06-02T05:18:53.814Z,94386.19
2023-06-02T05:21:21.718Z,94390.81
2023-06-02T05:23:51.610Z,94394.50
2023-06-02T05:26:19.561Z,94398.63
2023-06-02T05:28:47.544Z,94387.84
2023-06-02T05:31:15.465Z,94398.72
2023-06-02T05:33:43.459Z,94393.47
2023-06-02T05:36:11.399Z,94391.81
2023-06-02T05:38:44.022Z,94391.81
2023-06-02T05:41:13.598Z,94387.84
2023-06-02T05:43:41.484Z,94379.69
2023-06-02T05:46:09.452Z,94392.06
2023-06-02T05:48:37.500Z,94389.97
2023-06-02T05:51:05.473Z,94395.25
2023-06-02T05:53:33.535Z,94391.72
2023-06-02T05:56:01.850Z,94390.47
2023-06-02T05:58:32.563Z,94391.75
2023-06-02T06:01:00.848Z,94391.34
2023-06-02T06:03:28.924Z,94398.00
2023-06-02T06:05:56.999Z,94397.16
2023-06-02T06:08:24.984Z,94401.25
2023-06-02T06:10:52.931Z,94406.09
2023-06-02T06:13:21.032Z,94401.78
2023-06-02T06:15:50.549Z,94409.47
2023-06-02T06:18:20.556Z,94410.78
2023-06-02T06:20:48.573Z,94408.28
2023-06-02T06:23:17.094Z,94407.59
2023-06-02T06:25:45.194Z,94409.44
2023-06-02T06:28:13.180Z,94411.59
2023-06-02T06:30:41.497Z,94399.00
2023-06-02T06:33:11.213Z,94394.09
2023-06-02T06:35:39.113Z,94404.19
2023-06-02T06:38:07.066Z,94410.63
2023-06-02T06:40:35.039Z,94397.66
2023-06-02T06:43:15.090Z,94408.31
2023-06-02T06:45:51.487Z,94395.72
2023-06-02T06:48:21.192Z,94407.31
2023-06-02T06:50:49.949Z,94407.31
2023-06-02T06:53:18.192Z,94403.44
2023-06-02T06:55:46.692Z,94404.63
2023-06-02T06:58:14.703Z,94404.25
2023-06-02T07:00:42.680Z,94403.22
2023-06-02T07:03:10.750Z,94398.38
2023-06-02T07:05:40.197Z,94409.81
2023-06-02T07:08:08.241Z,94401.81
2023-06-02T07:10:36.231Z,94403.53
2023-06-02T07:13:04.242Z,94405.47
2023-06-02T07:15:32.180Z,94411.97
2023-06-02T07:18:00.289Z,94410.72
2023-06-02T07:20:28.334Z,94403.72
2023-06-02T07:22:57.785Z,94401.22
2023-06-02T07:25:25.763Z,94406.97
2023-06-02T07:27:54.849Z,94413.63
2023-06-02T07:30:23.051Z,94402.22
2023-06-02T07:32:51.060Z,94418.94
2023-06-02T07:35:19.278Z,94422.72
2023-06-02T07:37:47.216Z,94429.78
2023-06-02T07:40:16.463Z,94430.16
2023-06-02T07:42:44.374Z,94437.09
2023-06-02T07:45:12.637Z,94430.94
2023-06-02T07:47:40.654Z,94424.91
2023-06-02T07:50:09.240Z,94428.75
2023-06-02T07:52:37.376Z,94430.75
2023-06-02T07:55:05.882Z,94439.25
2023-06-02T07:57:35.185Z,94434.38
2023-06-02T08:00:12.360Z,94432.72
2023-06-02T08:02:41.648Z,94426.19
2023-06-02T08:05:10.790Z,94424.31
2023-06-02T08:07:38.917Z,94422.34
2023-06-02T08:10:08.137Z,94429.72
2023-06-02T08:12:37.617Z,94418.09
2023-06-02T08:15:06.467Z,94412.31
2023-06-02T08:17:34.477Z,94407.78
2023-06-02T08:20:03.391Z,94412.06
2023-06-02T08:22:33.381Z,94410.50
2023-06-02T08:25:02.022Z,94399.66
2023-06-02T08:27:30.025Z,94399.56
2023-06-02T08:29:59.528Z,94395.44
2023-06-02T08:32:27.954Z,94384.69
2023-06-02T08:34:57.897Z,94388.53
2023-06-02T08:37:26.382Z,94381.03
2023-06-02T08:39:54.476Z,94378.25
2023-06-02T08:42:23.774Z,94379.94
2023-06-02T08:44:51.765Z,94371.25
2023-06-02T08:47:25.678Z,94373.19
2023-06-02T08:49:53.985Z,94372.66
2023-06-02T08:52:24.107Z,94355.41
2023-06-02T08:54:52.682Z,94365.75
2023-06-02T08:57:23.789Z,94361.53
2023-06-02T08:59:53.193Z,94353.63
2023-06-02T09:02:22.634Z,94344.56
2023-06-02T09:04:50.858Z,94349.44
2023-06-02T09:07:25.171Z,94346.53
2023-06-02T09:09:58.468Z,94337.34
2023-06-02T09:12:27.205Z,94332.41
2023-06-02T09:15:11.574Z,94339.91
2023-06-02T09:17:41.057Z,94330.16
2023-06-02T09:20:12.809Z,94328.88
2023-06-02T09:22:57.043Z,94330.75
2023-06-02T09:25:26.793Z,94323.91
2023-06-02T09:27:56.920Z,94327.38
2023-06-02T09:30:25.227Z,94333.25
2023-06-02T09:32:56.695Z,94314.88
2023-06-02T09:35:38.339Z,94321.81
2023-06-02T09:38:08.466Z,94322.34
2023-06-02T09:40:36.860Z,94312.50
2023-06-02T09:43:06.707Z,94311.69
2023-06-02T09:45:35.583Z,94315.19
2023-06-02T09:48:18.640Z,94312.22
2023-06-02T09:50:46.952Z,94315.88
2023-06-02T09:53:17.122Z,94306.56
2023-06-02T09:55:45.764Z,94305.19
2023-06-02T09:58:14.284Z,94307.09
2023-06-02T10:00:42.670Z,94298.88
2023-06-02T10:03:12.512Z,94293.63
2023-06-02T10:05:49.767Z,94306.03
2023-06-02T10:08:28.879Z,94306.22
2023-06-02T10:11:09.952Z,94300.44
2023-06-02T10:13:58.001Z,94289.78
2023-06-02T10:16:48.622Z,94293.50
2023-06-02T10:19:53.075Z,94299.31
2023-06-02T10:22:40.414Z,94293.72
2023-06-02T10:25:18.173Z,94287.94
2023-06-02T10:27:49.236Z,94290.06
2023-06-02T10:30:21.447Z,94279.38
2023-06-02T10:32:51.716Z,94288.09
2023-06-02T10:35:21.193Z,94279.91
2023-06-02T10:37:49.997Z,94275.91
2023-06-02T10:40:18.046Z,94285.25
2023-06-02T10:43:11.264Z,94275.94
2023-06-02T10:45:41.330Z,94271.63
2023-06-02T10:48:40.819Z,94260.66
2023-06-02T10:51:11.831Z,94264.59
2023-06-02T10:54:16.194Z,94257.53
2023-06-02T10:56:46.446Z,94257.94
2023-06-02T10:59:32.749Z,94254.19
2023-06-02T11:02:00.899Z,94255.78
2023-06-02T11:04:30.721Z,94257.34
2023-06-02T11:07:27.777Z,94250.84
2023-06-02T11:09:57.335Z,94243.78
2023-06-02T11:13:02.507Z,94233.44
2023-06-02T11:15:30.450Z,94224.81
2023-06-02T11:17:58.542Z,94236.66
2023-06-02T11:20:35.898Z,94240.00
2023-06-02T11:23:08.477Z,94237.94
2023-06-02T11:25:36.685Z,94238.31
2023-06-02T11:28:04.624Z,94237.38
2023-06-02T11:30:32.790Z,94235.22
2023-06-02T11:33:01.042Z,94217.09
2023-06-02T11:35:29.234Z,94221.06
2023-06-02T11:38:06.222Z,94224.09
2023-06-02T11:40:38.573Z,94234.78
2023-06-02T11:43:06.621Z,94219.59
2023-06-02T11:45:36.119Z,94230.94
2023-06-02T11:48:07.009Z,94224.59
2023-06-02T11:50:35.656Z,94227.66
2023-06-02T11:53:04.028Z,94207.94
2023-06-02T11:55:33.975Z,94215.66
2023-06-02T11:58:24.394Z,94215.31
2023-06-02T12:00:53.458Z,94218.50
2023-06-02T12:03:21.566Z,94207.00
2023-06-02T12:05:51.050Z,94206.25
2023-06-02T12:08:23.823Z,94197.44
2023-06-02T12:10:52.441Z,94209.63
2023-06-02T12:13:28.877Z,94207.00
2023-06-02T12:15:57.856Z,94195.72
2023-06-02T12:18:30.818Z,94190.13
2023-06-02T12:21:01.644Z,94204.81
2023-06-02T12:23:47.765Z,94189.91
2023-06-02T12:26:16.559Z,94197.16
2023-06-02T12:28:46.328Z,94201.84
2023-06-02T12:31:14.898Z,94197.50
2023-06-02T12:33:44.170Z,94183.72
2023-06-02T12:36:12.552Z,94198.19
2023-06-02T12:38:41.577Z,94190.16
2023-06-02T12:41:12.755Z,94185.50
2023-06-02T12:43:41.701Z,94190.47
2023-06-02T12:46:12.791Z,94184.75
2023-06-02T12:48:41.285Z,94177.41
2023-06-02T12:51:09.480Z,94182.13
2023-06-02T12:53:38.239Z,94178.13
2023-06-02T12:56:06.874Z,94172.22
2023-06-02T12:58:35.761Z,94169.72
2023-06-02T13:01:04.080Z,94169.84
2023-06-02T13:03:33.836Z,94168.97
2023-06-02T13:06:03.489Z,94165.44
2023-06-02T13:08:31.829Z,94157.88
2023-06-02T13:11:00.341Z,94168.69
2023-06-02T13:13:29.186Z,94164.03
2023-06-02T13:15:58.221Z,94162.72
2023-06-02T13:18:26.494Z,94161.03
2023-06-02T13:20:56.449Z,94153.63
2023-06-02T13:23:24.731Z,94162.88
2023-06-02T13:25:52.900Z,94157.28
2023-06-02T13:28:20.899Z,94156.69
2023-06-02T13:30:48.806Z,94150.81
2023-06-02T13:33:16.823Z,94159.22
2023-06-02T13:35:45.118Z,94156.34
2023-06-02T13:38:14.446Z,94156.47
2023-06-02T13:40:42.421Z,94151.41
2023-06-02T13:43:11.084Z,94141.72
2023-06-02T13:45:39.118Z,94143.88
2023-06-02T13:48:08.104Z,94142.63
2023-06-02T13:50:36.244Z,94131.84
2023-06-02T13:53:04.625Z,94130.94
2023-06-02T13:55:36.283Z,94130.41
2023-06-02T13:58:04.221Z,94127.84
2023-06-02T14:00:32.193Z,94127.25
2023-06-02T14:03:00.323Z,94122.16
2023-06-02T14:05:28.399Z,94126.09
2023-06-02T14:07:56.410Z,94125.94
2023-06-02T14:10:24.387Z,94125.94
2023-06-02T14:12:53.704Z,94124.09
2023-06-02T14:15:21.640Z,94122.16
2023-06-02T14:17:49.661Z,94122.28
2023-06-02T14:20:17.673Z,94120.66
2023-06-02T14:22:46.021Z,94131.94
2023-06-02T14:25:13.989Z,94131.59
2023-06-02T14:27:42.137Z,94119.22
2023-06-02T14:30:12.056Z,94126.66
2023-06-02T14:32:40.192Z,94122.16
2023-06-02T14:35:08.821Z,94120.84
2023-06-02T14:37:36.983Z,94129.06
2023-06-02T14:40:05.478Z,94126.41
2023-06-02T14:42:33.473Z,94118.47
2023-06-02T14:45:01.585Z,94132.78
2023-06-02T14:47:34.421Z,94146.13
2023-06-02T14:50:02.731Z,94157.69
2023-06-02T14:52:30.714Z,94157.44
2023-06-02T14:54:58.777Z,94150.16
2023-06-02T14:57:27.742Z,94142.00
2023-06-02T14:59:55.749Z,94141.16
2023-06-02T15:02:23.899Z,94144.13
2023-06-02T15:04:53.271Z,94131.06
2023-06-02T15:07:22.594Z,94142.19
2023-06-02T15:09:50.699Z,94125.16
2023-06-02T15:12:19.005Z,94144.34
2023-06-02T15:14:47.593Z,94154.75
2023-06-02T15:17:15.729Z,94144.97
2023-06-02T15:19:44.311Z,94151.47
2023-06-02T15:22:13.731Z,94143.28
2023-06-02T15:24:43.022Z,94144.34
2023-06-02T15:27:12.452Z,94144.53
2023-06-02T15:29:40.580Z,94140.44
2023-06-02T15:32:09.931Z,94134.59
2023-06-02T15:34:37.975Z,94124.44
2023-06-02T15:37:06.536Z,94142.41
2023-06-02T15:39:36.090Z,94138.31
2023-06-02T15:42:04.053Z,94139.03
2023-06-02T15:44:32.022Z,94129.25
2023-06-02T15:46:59.999Z,94125.59
2023-06-02T15:49:29.296Z,94118.25
2023-06-02T15:51:57.868Z,94122.50
2023-06-02T15:54:26.358Z,94120.91
2023-06-02T15:56:57.376Z,94120.84
2023-06-02T15:59:26.162Z,94111.38
2023-06-02T16:01:55.018Z,94115.22
2023-06-02T16:04:24.028Z,94106.44
2023-06-02T16:06:53.200Z,94111.78
2023-06-02T16:09:22.426Z,94098.56
2023-06-02T16:11:50.410Z,94112.41
2023-06-02T16:14:19.798Z,94106.44
2023-06-02T16:16:47.852Z,94111.63
2023-06-02T16:19:17.659Z,94123.84
2023-06-02T16:21:45.913Z,94112.41
2023-06-02T16:24:13.835Z,94122.50
2023-06-02T16:26:41.888Z,94117.22
2023-06-02T16:29:10.627Z,94112.81
2023-06-02T16:31:40.094Z,94123.09
2023-06-02T16:34:08.093Z,94130.19
2023-06-02T16:36:36.102Z,94136.69
2023-06-02T16:39:04.740Z,94137.59
2023-06-02T16:41:32.858Z,94143.81
2023-06-02T16:44:00.923Z,94138.59
2023-06-02T16:46:29.056Z,94141.34
2023-06-02T16:48:58.434Z,94130.38
2023-06-02T16:51:26.930Z,94136.22
2023-06-02T16:53:55.060Z,94144.75
2023-06-02T16:56:23.241Z,94143.72
2023-06-02T16:58:53.668Z,94143.50
2023-06-02T17:01:21.643Z,94152.47
2023-06-02T17:03:49.619Z,94148.75
2023-06-02T17:06:20.267Z,94149.78
2023-06-02T17:08:48.206Z,94164.34
2023-06-02T17:11:16.098Z,94157.75
2023-06-02T17:13:44.044Z,94169.72
2023-06-02T17:18:40.190Z,94166.78
2023-06-02T17:21:08.357Z,94166.22
2023-06-02T17:23:37.825Z,94173.31
2023-06-02T17:26:06.363Z,94165.03
2023-06-02T17:28:34.532Z,94168.22
2023-06-02T17:31:04.118Z,94170.78
2023-06-02T17:33:32.368Z,94177.59
2023-06-02T17:36:00.353Z,94181.44
2023-06-02T17:38:28.320Z,94174.88
2023-06-02T17:40:57.791Z,94179.13
2023-06-02T17:43:27.794Z,94178.91
2023-06-02T17:45:57.292Z,94168.09
2023-06-02T17:48:27.448Z,94178.69
2023-06-02T17:50:56.162Z,94177.03
2023-06-02T17:53:24.096Z,94177.59
2023-06-02T17:55:52.446Z,94175.00
2023-06-02T17:58:22.399Z,94178.81
2023-06-02T18:00:50.577Z,94181.72
2023-06-02T18:03:18.656Z,94173.31
2023-06-02T18:05:46.648Z,94155.91
2023-06-02T18:08:14.719Z,94176.59
2023-06-02T18:10:42.952Z,94175.25
2023-06-02T18:13:11.125Z,94165.16
2023-06-02T18:15:40.526Z,94174.13
2023-06-02T18:18:08.720Z,94177.88
2023-06-02T18:20:37.400Z,94184.69
2023-06-02T18:23:05.700Z,94183.63
2023-06-02T18:25:34.205Z,94183.09
2023-06-02T18:28:02.233Z,94187.78
2023-06-02T18:30:31.396Z,94195.97
2023-06-02T18:33:00.804Z,94192.41
2023-06-02T18:35:29.585Z,94197.63
2023-06-02T18:37:57.578Z,94197.53
2023-06-02T18:40:25.596Z,94205.97
2023-06-02T18:42:53.544Z,94211.50
2023-06-02T18:45:21.699Z,94210.38
2023-06-02T18:47:50.110Z,94206.31
2023-06-02T18:50:19.681Z,94218.88
2023-06-02T18:52:47.671Z,94223.41
2023-06-02T18:55:15.699Z,94229.34
2023-06-02T18:57:43.723Z,94233.13
2023-06-02T19:00:13.353Z,94246.88
2023-06-02T19:02:51.000Z,94248.06
2023-06-02T19:05:20.582Z,94239.81
2023-06-02T19:07:48.570Z,94252.78
2023-06-02T19:10:16.734Z,94243.25
2023-06-02T19:12:44.732Z,94249.50
2023-06-02T19:15:14.363Z,94254.31
2023-06-02T19:17:42.439Z,94245.34
2023-06-02T19:20:11.711Z,94239.81
2023-06-02T19:22:41.035Z,94263.00
2023-06-02T19:25:09.860Z,94267.44
2023-06-02T19:27:38.008Z,94256.44
2023-06-02T19:30:06.730Z,94270.38
2023-06-02T19:32:34.769Z,94259.19
2023-06-02T19:35:04.230Z,94266.63
2023-06-02T19:37:32.405Z,94258.31
2023-06-02T19:40:01.840Z,94263.59
2023-06-02T19:42:30.735Z,94260.88
2023-06-02T19:44:59.254Z,94260.31
2023-06-02T19:47:27.463Z,94255.03
2023-06-02T19:49:55.500Z,94248.97
2023-06-02T19:52:23.718Z,94250.00
2023-06-02T19:54:51.670Z,94254.72
2023-06-02T19:57:21.455Z,94253.09
2023-06-02T19:59:51.375Z,94257.84
2023-06-02T20:02:19.566Z,94254.38
2023-06-02T20:04:49.946Z,94258.72
2023-06-02T20:07:17.973Z,94266.63
2023-06-02T20:09:48.488Z,94262.47
2023-06-02T20:12:16.424Z,94262.72
2023-06-02T20:14:46.306Z,94267.13
2023-06-02T20:17:14.358Z,94276.94
2023-06-02T20:19:42.987Z,94278.72
2023-06-02T20:22:11.090Z,94277.88
2023-06-02T20:24:39.012Z,94267.03
2023-06-02T20:27:07.354Z,94263.84
2023-06-02T20:29:35.712Z,94267.03
2023-06-02T20:32:05.520Z,94260.63
2023-06-02T20:34:33.480Z,94264.78
2023-06-02T20:37:01.702Z,94270.31
2023-06-02T20:39:29.752Z,94260.72
2023-06-02T20:41:57.861Z,94277.34
2023-06-02T20:44:25.821Z,94275.25
2023-06-02T20:46:53.727Z,94280.63
2023-06-02T20:49:23.164Z,94277.03
2023-06-02T20:51:51.579Z,94286.63
2023-06-02T20:54:19.531Z,94286.22
2023-06-02T20:56:47.499Z,94288.84
2023-06-02T20:59:15.870Z,94284.13
2023-06-02T21:01:43.829Z,94291.34
2023-06-02T21:04:11.745Z,94293.41
2023-06-02T21:06:41.126Z,94290.69
2023-06-02T21:09:10.165Z,94298.72
2023-06-02T21:11:38.086Z,94299.25
2023-06-02T21:14:06.043Z,94308.59
2023-06-02T21:16:34.056Z,94307.25
2023-06-02T21:19:02.052Z,94313.06
2023-06-02T21:21:29.983Z,94311.69
2023-06-02T21:23:59.293Z,94316.50
2023-06-02T21:26:27.278Z,94309.84
2023-06-02T21:28:55.389Z,94333.38
2023-06-02T21:31:23.392Z,94339.91
2023-06-02T21:33:51.384Z,94348.03
2023-06-02T21:36:20.311Z,94339.31
2023-06-02T21:38:48.928Z,94355.13
2023-06-02T21:41:18.294Z,94348.78
2023-06-02T21:43:46.630Z,94333.41
2023-06-02T21:46:14.633Z,94342.69
2023-06-02T21:48:42.627Z,94357.16
2023-06-02T21:51:10.715Z,94378.25
2023-06-02T21:53:38.613Z,94354.88
2023-06-02T21:56:06.857Z,94349.84
2023-06-02T21:58:36.316Z,94356.63
2023-06-02T22:01:04.552Z,94363.13
2023-06-02T22:03:32.893Z,94377.94
2023-06-02T22:06:00.912Z,94370.13
2023-06-02T22:08:28.931Z,94373.00
2023-06-02T22:11:00.982Z,94365.59
2023-06-02T22:13:28.981Z,94370.22
2023-06-02T22:15:58.306Z,94371.00
2023-06-02T22:18:26.237Z,94369.13
2023-06-02T22:20:54.187Z,94383.81
2023-06-02T22:23:22.256Z,94381.19
2023-06-02T22:25:50.293Z,94355.09
2023-06-02T22:28:18.199Z,94373.13
2023-06-02T22:30:46.212Z,94370.66
2023-06-02T22:33:15.466Z,94370.06
2023-06-02T22:35:43.437Z,94370.84
2023-06-02T22:38:11.404Z,94371.44
2023-06-02T22:40:39.578Z,94380.56
2023-06-02T22:43:07.839Z,94376.47
2023-06-02T22:45:35.733Z,94370.22
2023-06-02T22:48:03.754Z,94368.91
2023-06-02T22:50:33.380Z,94363.56
2023-06-02T22:53:01.631Z,94360.19
2023-06-02T22:55:29.787Z,94364.03
2023-06-02T22:57:57.705Z,94353.56
2023-06-02T23:00:25.660Z,94336.13
2023-06-02T23:02:53.694Z,94340.75
2023-06-02T23:05:22.155Z,94339.56
2023-06-02T23:07:51.885Z,94333.72
2023-06-02T23:10:19.904Z,94319.28
2023-06-02T23:12:47.803Z,94324.47
2023-06-02T23:15:18.115Z,94318.63
2023-06-02T23:17:46.163Z,94319.44
2023-06-02T23:20:14.357Z,94308.72
2023-06-02T23:22:42.311Z,94310.50
2023-06-02T23:25:11.975Z,94305.09
2023-06-02T23:27:39.945Z,94307.41
2023-06-02T23:30:09.482Z,94307.88
2023-06-02T23:32:38.066Z,94301.97
2023-06-02T23:35:06.922Z,94296.13
2023-06-02T23:37:34.885Z,94301.03
2023-06-02T23:40:02.953Z,94284.16
2023-06-02T23:42:32.271Z,94287.75
2023-06-02T23:45:00.321Z,94279.00
2023-06-02T23:47:28.343Z,94278.72
2023-06-02T23:49:56.242Z,94273.31
2023-06-02T23:52:24.388Z,94273.31
2023-06-02T23:54:52.536Z,94273.59
2023-06-02T23:57:20.492Z,94274.19
2023-06-02T23:59:49.784Z,94276.91
